sensor_id;sensor_type;location;lat;lon;timestamp;pressure;altitude;pressure_sealevel;temperature;humidity
77537;BME280;67783;51.656;16.106;2023-03-23T00:00:48;100966.15;;;15.15;50.44
77537;BME280;67783;51.656;16.106;2023-03-23T00:03:52;100978.64;;;15.16;50.40
77537;BME280;67783;51.656;16.106;2023-03-23T00:06:54;100968.97;;;15.13;50.41
77537;BME280;67783;51.656;16.106;2023-03-23T00:10:06;100962.99;;;15.10;50.28
77537;BME280;67783;51.656;16.106;2023-03-23T00:13:08;100957.59;;;15.10;50.38
77537;BME280;67783;51.656;16.106;2023-03-23T00:16:13;100964.71;;;15.11;50.36
77537;BME280;67783;51.656;16.106;2023-03-23T00:19:21;100962.71;;;15.13;50.29
77537;BME280;67783;51.656;16.106;2023-03-23T00:22:23;100961.86;;;15.12;50.32
77537;BME280;67783;51.656;16.106;2023-03-23T00:25:27;100953.16;;;15.09;50.23
77537;BME280;67783;51.656;16.106;2023-03-23T00:28:29;100953.05;;;15.10;50.34
77537;BME280;67783;51.656;16.106;2023-03-23T00:31:31;100955.88;;;15.09;50.33
77537;BME280;67783;51.656;16.106;2023-03-23T00:34:36;100961.27;;;15.09;50.33
77537;BME280;67783;51.656;16.106;2023-03-23T00:37:41;100951.60;;;15.06;50.34
77537;BME280;67783;51.656;16.106;2023-03-23T00:40:49;100943.05;;;15.01;50.21
77537;BME280;67783;51.656;16.106;2023-03-23T00:43:51;100937.65;;;15.01;50.34
77537;BME280;67783;51.656;16.106;2023-03-23T00:46:52;100939.61;;;14.99;50.33
77537;BME280;67783;51.656;16.106;2023-03-23T00:50:02;100931.39;;;15.01;50.32
77537;BME280;67783;51.656;16.106;2023-03-23T00:53:04;100932.38;;;15.00;50.33
77537;BME280;67783;51.656;16.106;2023-03-23T00:56:09;100933.38;;;14.99;50.01
77537;BME280;67783;51.656;16.106;2023-03-23T00:59:11;100926.97;;;15.00;50.23
77537;BME280;67783;51.656;16.106;2023-03-23T01:02:13;100928.80;;;14.99;50.10
77537;BME280;67783;51.656;16.106;2023-03-23T01:05:17;100899.20;;;14.88;50.10
77537;BME280;67783;51.656;16.106;2023-03-23T01:08:20;100918.62;;;15.03;50.07
77537;BME280;67783;51.656;16.106;2023-03-23T01:11:29;100915.77;;;15.04;49.67
77537;BME280;67783;51.656;16.106;2023-03-23T01:14:31;100897.45;;;15.08;49.98
77537;BME280;67783;51.656;16.106;2023-03-23T01:17:33;100905.42;;;15.09;49.74
77537;BME280;67783;51.656;16.106;2023-03-23T01:20:36;100910.42;;;15.14;49.83
77537;BME280;67783;51.656;16.106;2023-03-23T01:23:39;100903.02;;;15.16;49.68
77537;BME280;67783;51.656;16.106;2023-03-23T01:26:50;100908.30;;;15.17;49.01
77537;BME280;67783;51.656;16.106;2023-03-23T01:29:51;100890.84;;;15.21;49.54
77537;BME280;67783;51.656;16.106;2023-03-23T01:32:54;100888.00;;;15.23;49.29
77537;BME280;67783;51.656;16.106;2023-03-23T01:35:57;100886.57;;;15.29;49.45
77537;BME280;67783;51.656;16.106;2023-03-23T01:39:04;100885.47;;;15.31;49.30
77537;BME280;67783;51.656;16.106;2023-03-23T01:42:11;100885.19;;;15.34;48.42
77537;BME280;67783;51.656;16.106;2023-03-23T01:48:37;100879.37;;;15.39;48.98
77537;BME280;67783;51.656;16.106;2023-03-23T01:54:55;100879.82;;;15.44;48.96
77537;BME280;67783;51.656;16.106;2023-03-23T01:57:58;100883.38;;;15.44;49.00
77537;BME280;67783;51.656;16.106;2023-03-23T02:01:07;100882.35;;;15.45;47.71
77537;BME280;67783;51.656;16.106;2023-03-23T02:04:14;100874.98;;;15.47;48.71
77537;BME280;67783;51.656;16.106;2023-03-23T02:07:20;100881.38;;;15.46;48.55
77537;BME280;67783;51.656;16.106;2023-03-23T02:10:31;100867.01;;;15.46;47.50
77537;BME280;67783;51.656;16.106;2023-03-23T02:13:33;100871.30;;;15.48;48.59
77537;BME280;67783;51.656;16.106;2023-03-23T02:16:44;100859.47;;;15.49;48.26
77537;BME280;67783;51.656;16.106;2023-03-23T02:26:39;100855.09;;;15.48;48.35
77537;BME280;67783;51.656;16.106;2023-03-23T02:29:48;100860.50;;;15.48;48.11
77537;BME280;67783;51.656;16.106;2023-03-23T02:36:23;100851.16;;;15.52;48.29
77537;BME280;67783;51.656;16.106;2023-03-23T02:39:33;100852.00;;;15.53;47.97
77537;BME280;67783;51.656;16.106;2023-03-23T02:42:39;100840.34;;;15.52;47.62
77537;BME280;67783;51.656;16.106;2023-03-23T02:45:44;100843.45;;;15.57;48.12
77537;BME280;67783;51.656;16.106;2023-03-23T02:48:48;100841.77;;;15.56;47.85
77537;BME280;67783;51.656;16.106;2023-03-23T02:51:59;100836.07;;;15.59;46.95
77537;BME280;67783;51.656;16.106;2023-03-23T02:55:03;100841.19;;;15.62;47.94
77537;BME280;67783;51.656;16.106;2023-03-23T02:58:06;100835.09;;;15.60;47.75
77537;BME280;67783;51.656;16.106;2023-03-23T03:01:14;100843.04;;;15.62;47.70
77537;BME280;67783;51.656;16.106;2023-03-23T03:04:20;100831.37;;;15.61;47.85
77537;BME280;67783;51.656;16.106;2023-03-23T03:14:03;100824.84;;;15.64;47.83
77537;BME280;67783;51.656;16.106;2023-03-23T03:17:18;100819.86;;;15.59;47.63
77537;BME280;67783;51.656;16.106;2023-03-23T03:20:28;100826.24;;;15.58;47.15
77537;BME280;67783;51.656;16.106;2023-03-23T03:23:32;100830.79;;;15.58;47.90
77537;BME280;67783;51.656;16.106;2023-03-23T03:26:36;100822.13;;;15.54;47.85
77537;BME280;67783;51.656;16.106;2023-03-23T03:29:40;100819.99;;;15.58;47.92
77537;BME280;67783;51.656;16.106;2023-03-23T03:32:48;100824.54;;;15.57;47.90
77537;BME280;67783;51.656;16.106;2023-03-23T03:35:55;100813.03;;;15.55;47.54
77537;BME280;67783;51.656;16.106;2023-03-23T03:38:59;100811.02;;;15.57;47.90
77537;BME280;67783;51.656;16.106;2023-03-23T03:42:01;100808.33;;;15.57;47.80
77537;BME280;67783;51.656;16.106;2023-03-23T03:45:03;100810.77;;;15.60;47.89
77537;BME280;67783;51.656;16.106;2023-03-23T03:48:05;100810.77;;;15.60;47.77
77537;BME280;67783;51.656;16.106;2023-03-23T03:51:10;100807.05;;;15.61;46.76
77537;BME280;67783;51.656;16.106;2023-03-23T03:54:11;100810.47;;;15.63;47.63
77537;BME280;67783;51.656;16.106;2023-03-23T03:57:13;100814.89;;;15.64;47.32
77537;BME280;67783;51.656;16.106;2023-03-23T04:00:16;100813.74;;;15.67;47.59
77537;BME280;67783;51.656;16.106;2023-03-23T04:03:18;100815.59;;;15.66;47.47
77537;BME280;67783;51.656;16.106;2023-03-23T04:06:19;100818.01;;;15.69;47.57
77537;BME280;67783;51.656;16.106;2023-03-23T04:09:22;100814.18;;;15.72;47.44
77537;BME280;67783;51.656;16.106;2023-03-23T04:12:26;100808.61;;;15.74;46.63
77537;BME280;67783;51.656;16.106;2023-03-23T04:15:28;100805.48;;;15.78;47.31
77537;BME280;67783;51.656;16.106;2023-03-23T04:18:30;100803.63;;;15.79;46.94
77537;BME280;67783;51.656;16.106;2023-03-23T04:21:33;100810.34;;;15.84;47.27
77537;BME280;67783;51.656;16.106;2023-03-23T04:24:35;100780.03;;;15.71;47.10
77537;BME280;67783;51.656;16.106;2023-03-23T04:27:50;100806.48;;;15.87;46.22
77537;BME280;67783;51.656;16.106;2023-03-23T04:30:55;100799.65;;;15.92;47.18
77537;BME280;67783;51.656;16.106;2023-03-23T04:33:57;100796.83;;;15.94;47.02
77537;BME280;67783;51.656;16.106;2023-03-23T04:37:02;100783.13;;;15.95;47.18
77537;BME280;67783;51.656;16.106;2023-03-23T04:40:05;100792.10;;;15.96;47.16
77537;BME280;67783;51.656;16.106;2023-03-23T04:43:11;100790.40;;;15.95;46.45
77537;BME280;67783;51.656;16.106;2023-03-23T04:46:15;100792.54;;;16.01;47.17
77537;BME280;67783;51.656;16.106;2023-03-23T04:49:20;100784.43;;;16.01;47.00
77537;BME280;67783;51.656;16.106;2023-03-23T04:52:22;100782.58;;;16.01;47.12
77537;BME280;67783;51.656;16.106;2023-03-23T04:55:26;100783.27;;;16.03;46.99
77537;BME280;67783;51.656;16.106;2023-03-23T04:58:31;100782.41;;;16.03;46.14
77537;BME280;67783;51.656;16.106;2023-03-23T05:01:34;100779.44;;;16.06;46.99
77537;BME280;67783;51.656;16.106;2023-03-23T05:04:39;100770.16;;;16.08;46.79
77537;BME280;67783;51.656;16.106;2023-03-23T05:07:42;100774.43;;;16.11;46.95
77537;BME280;67783;51.656;16.106;2023-03-23T05:10:52;100775.45;;;16.10;46.79
77537;BME280;67783;51.656;16.106;2023-03-23T05:13:54;100775.45;;;16.10;46.01
77537;BME280;67783;51.656;16.106;2023-03-23T05:16:56;100778.84;;;16.12;46.86
77537;BME280;67783;51.656;16.106;2023-03-23T05:19:59;100780.56;;;16.13;46.67
77537;BME280;67783;51.656;16.106;2023-03-23T05:23:01;100774.16;;;16.14;46.74
77537;BME280;67783;51.656;16.106;2023-03-23T05:26:02;100767.90;;;16.13;46.60
77537;BME280;67783;51.656;16.106;2023-03-23T05:29:12;100770.30;;;16.16;45.39
77537;BME280;67783;51.656;16.106;2023-03-23T05:32:15;100762.60;;;16.22;46.50
77537;BME280;67783;51.656;16.106;2023-03-23T05:35:19;100734.72;;;16.11;46.32
77537;BME280;67783;51.656;16.106;2023-03-23T05:38:22;100765.13;;;16.33;46.42
77537;BME280;67783;51.656;16.106;2023-03-23T05:41:25;100761.29;;;16.35;46.31
77537;BME280;67783;51.656;16.106;2023-03-23T05:44:33;100772.36;;;16.42;45.15
77537;BME280;67783;51.656;16.106;2023-03-23T05:47:35;100763.50;;;16.49;46.20
77537;BME280;67783;51.656;16.106;2023-03-23T05:50:37;100769.46;;;16.53;45.83
77537;BME280;67783;51.656;16.106;2023-03-23T05:53:39;100761.66;;;16.59;46.09
77537;BME280;67783;51.656;16.106;2023-03-23T05:56:43;100761.05;;;16.66;45.96
77537;BME280;67783;51.656;16.106;2023-03-23T05:59:53;100771.29;;;16.72;44.76
77537;BME280;67783;51.656;16.106;2023-03-23T06:02:56;100760.56;;;16.80;45.88
77537;BME280;67783;51.656;16.106;2023-03-23T06:05:58;100760.66;;;16.88;45.56
77537;BME280;67783;51.656;16.106;2023-03-23T06:08:59;100769.74;;;16.96;45.72
77537;BME280;67783;51.656;16.106;2023-03-23T06:12:02;100760.31;;;17.00;45.63
77537;BME280;67783;51.656;16.106;2023-03-23T06:15:14;100764.56;;;17.03;44.77
77537;BME280;67783;51.656;16.106;2023-03-23T06:18:16;100744.11;;;16.91;45.71
77537;BME280;67783;51.656;16.106;2023-03-23T06:21:18;100761.71;;;17.04;45.52
77537;BME280;67783;51.656;16.106;2023-03-23T06:24:20;100756.84;;;17.08;45.60
77537;BME280;67783;51.656;16.106;2023-03-23T06:27:23;100765.96;;;17.07;45.53
77537;BME280;67783;51.656;16.106;2023-03-23T06:30:35;100772.55;;;17.04;44.48
77537;BME280;67783;51.656;16.106;2023-03-23T06:33:38;100767.98;;;17.05;45.63
77537;BME280;67783;51.656;16.106;2023-03-23T06:36:41;100765.27;;;17.05;45.45
77537;BME280;67783;51.656;16.106;2023-03-23T06:39:45;100767.98;;;17.05;45.70
77537;BME280;67783;51.656;16.106;2023-03-23T06:42:47;100768.98;;;17.04;45.62
77537;BME280;67783;51.656;16.106;2023-03-23T06:45:58;100765.41;;;17.03;44.89
77537;BME280;67783;51.656;16.106;2023-03-23T06:49:01;100759.86;;;17.05;45.70
77537;BME280;67783;51.656;16.106;2023-03-23T06:52:04;100765.96;;;17.07;45.47
77537;BME280;67783;51.656;16.106;2023-03-23T06:55:08;100761.66;;;17.14;45.50
77537;BME280;67783;51.656;16.106;2023-03-23T06:58:10;100752.91;;;17.20;45.42
77537;BME280;67783;51.656;16.106;2023-03-23T07:01:16;100753.70;;;17.30;44.31
77537;BME280;67783;51.656;16.106;2023-03-23T07:04:18;100754.01;;;17.45;45.09
77537;BME280;67783;51.656;16.106;2023-03-23T07:07:19;100757.22;;;17.58;44.70
77537;BME280;67783;51.656;16.106;2023-03-23T07:10:21;100758.69;;;17.70;44.89
77537;BME280;67783;51.656;16.106;2023-03-23T07:13:23;100756.49;;;17.91;44.66
77537;BME280;67783;51.656;16.106;2023-03-23T07:16:36;100761.42;;;18.14;43.46
77537;BME280;67783;51.656;16.106;2023-03-23T07:19:39;100753.44;;;18.38;44.44
77537;BME280;67783;51.656;16.106;2023-03-23T07:22:41;100754.67;;;18.52;43.81
77537;BME280;67783;51.656;16.106;2023-03-23T07:25:44;100751.02;;;18.61;44.15
77537;BME280;67783;51.656;16.106;2023-03-23T07:28:48;100757.17;;;18.63;43.89
77537;BME280;67783;51.656;16.106;2023-03-23T07:31:57;100749.51;;;18.58;42.13
77537;BME280;67783;51.656;16.106;2023-03-23T07:34:58;100755.79;;;18.59;43.94
77537;BME280;67783;51.656;16.106;2023-03-23T07:38:00;100761.04;;;18.60;43.43
77537;BME280;67783;51.656;16.106;2023-03-23T07:41:03;100765.46;;;18.61;43.76
77537;BME280;67783;51.656;16.106;2023-03-23T07:44:06;100772.93;;;18.59;43.65
77537;BME280;67783;51.656;16.106;2023-03-23T07:47:17;100770.70;;;18.55;42.74
77537;BME280;67783;51.656;16.106;2023-03-23T07:50:19;100779.84;;;18.54;43.76
77537;BME280;67783;51.656;16.106;2023-03-23T07:53:26;100780.30;;;18.49;43.43
77537;BME280;67783;51.656;16.106;2023-03-23T07:56:28;100768.43;;;18.50;43.87
77537;BME280;67783;51.656;16.106;2023-03-23T07:59:30;100776.40;;;18.52;43.63
77537;BME280;67783;51.656;16.106;2023-03-23T08:02:37;100765.54;;;18.52;42.62
77537;BME280;67783;51.656;16.106;2023-03-23T08:05:40;100764.41;;;18.54;43.88
77537;BME280;67783;51.656;16.106;2023-03-23T08:08:43;100782.09;;;18.58;43.72
77537;BME280;67783;51.656;16.106;2023-03-23T08:11:45;100783.95;;;18.58;43.80
77537;BME280;67783;51.656;16.106;2023-03-23T08:14:49;100775.95;;;18.56;43.86
77537;BME280;67783;51.656;16.106;2023-03-23T08:17:58;100772.93;;;18.59;43.09
77537;BME280;67783;51.656;16.106;2023-03-23T08:21:03;100762.63;;;18.71;43.85
77537;BME280;67783;51.656;16.106;2023-03-23T08:24:06;100766.06;;;18.81;43.53
77537;BME280;67783;51.656;16.106;2023-03-23T08:27:07;100769.33;;;18.93;43.58
77537;BME280;67783;51.656;16.106;2023-03-23T08:30:12;100768.88;;;19.05;43.48
77537;BME280;67783;51.656;16.106;2023-03-23T08:33:19;100770.47;;;19.24;42.47
77537;BME280;67783;51.656;16.106;2023-03-23T08:36:23;100765.72;;;19.34;42.85
77537;BME280;67783;51.656;16.106;2023-03-23T08:39:25;100766.08;;;19.39;42.97
77537;BME280;67783;51.656;16.106;2023-03-23T08:42:27;100775.84;;;19.50;42.89
77537;BME280;67783;51.656;16.106;2023-03-23T08:45:29;100768.35;;;19.60;42.45
77537;BME280;67783;51.656;16.106;2023-03-23T08:48:39;100775.51;;;19.61;41.19
77537;BME280;67783;51.656;16.106;2023-03-23T08:51:41;100764.27;;;19.64;42.36
77537;BME280;67783;51.656;16.106;2023-03-23T08:54:44;100764.47;;;19.62;41.91
77537;BME280;67783;51.656;16.106;2023-03-23T08:57:49;100765.32;;;19.63;42.15
77537;BME280;67783;51.656;16.106;2023-03-23T09:00:51;100766.99;;;19.56;41.80
77537;BME280;67783;51.656;16.106;2023-03-23T09:04:00;100780.57;;;19.48;40.54
77537;BME280;67783;51.656;16.106;2023-03-23T09:07:01;100795.19;;;19.47;41.96
77537;BME280;67783;51.656;16.106;2023-03-23T09:10:04;100793.16;;;19.49;41.38
77537;BME280;67783;51.656;16.106;2023-03-23T09:13:06;100788.41;;;19.59;42.19
77537;BME280;67783;51.656;16.106;2023-03-23T09:16:09;100783.83;;;19.67;41.91
77537;BME280;67783;51.656;16.106;2023-03-23T09:19:20;100788.77;;;19.72;40.23
77537;BME280;67783;51.656;16.106;2023-03-23T09:22:22;100786.75;;;19.74;41.63
77537;BME280;67783;51.656;16.106;2023-03-23T09:25:26;100791.17;;;19.75;41.17
77537;BME280;67783;51.656;16.106;2023-03-23T09:28:29;100782.66;;;19.78;41.13
77537;BME280;67783;51.656;16.106;2023-03-23T09:31:32;100779.95;;;19.78;41.24
77537;BME280;67783;51.656;16.106;2023-03-23T09:34:41;100781.82;;;19.86;40.13
77537;BME280;67783;51.656;16.106;2023-03-23T09:37:44;100790.99;;;19.93;41.28
77537;BME280;67783;51.656;16.106;2023-03-23T09:40:53;100789.97;;;19.94;40.33
77537;BME280;67783;51.656;16.106;2023-03-23T09:50:27;100816.67;;;19.74;40.77
77537;BME280;67783;51.656;16.106;2023-03-23T09:53:41;100818.02;;;19.70;41.11
77537;BME280;67783;51.656;16.106;2023-03-23T09:56:44;100839.27;;;19.66;41.01
77537;BME280;67783;51.656;16.106;2023-03-23T09:59:58;100830.59;;;19.63;39.75
77537;BME280;67783;51.656;16.106;2023-03-23T10:06:19;100828.55;;;19.73;41.12
77537;BME280;67783;51.656;16.106;2023-03-23T10:09:24;100826.20;;;19.78;40.86
77537;BME280;67783;51.656;16.106;2023-03-23T10:12:36;100829.58;;;19.80;41.27
77537;BME280;67783;51.656;16.106;2023-03-23T10:15:41;100833.34;;;19.79;41.37
77537;BME280;67783;51.656;16.106;2023-03-23T10:19:01;100823.47;;;19.78;40.35
77537;BME280;67783;51.656;16.106;2023-03-23T10:22:09;100826.20;;;19.78;41.47
77537;BME280;67783;51.656;16.106;2023-03-23T10:25:19;100827.36;;;19.75;41.39
77537;BME280;67783;51.656;16.106;2023-03-23T10:31:42;100830.43;;;19.72;41.59
77537;BME280;67783;51.656;16.106;2023-03-23T10:34:57;100835.01;;;19.72;41.54
77537;BME280;67783;51.656;16.106;2023-03-23T10:38:03;100835.52;;;19.75;41.48
77537;BME280;67783;51.656;16.106;2023-03-23T10:41:17;100841.84;;;19.84;41.74
77537;BME280;67783;51.656;16.106;2023-03-23T10:44:20;100844.39;;;19.86;41.66
77537;BME280;67783;51.656;16.106;2023-03-23T10:47:24;100841.33;;;19.89;41.16
77537;BME280;67783;51.656;16.106;2023-03-23T10:50:30;100843.73;;;19.92;41.67
77537;BME280;67783;51.656;16.106;2023-03-23T10:53:36;100846.97;;;19.95;41.62
77537;BME280;67783;51.656;16.106;2023-03-23T10:56:41;100842.54;;;20.02;41.75
77537;BME280;67783;51.656;16.106;2023-03-23T10:59:42;100841.53;;;20.03;41.79
77537;BME280;67783;51.656;16.106;2023-03-23T11:02:57;100849.18;;;19.92;41.40
77537;BME280;67783;51.656;16.106;2023-03-23T11:06:11;100858.50;;;19.81;42.15
77537;BME280;67783;51.656;16.106;2023-03-23T11:09:14;100864.63;;;19.75;42.39
77537;BME280;67783;51.656;16.106;2023-03-23T11:12:19;100871.75;;;19.76;42.82
77537;BME280;67783;51.656;16.106;2023-03-23T11:15:29;100863.28;;;19.87;42.67
77537;BME280;67783;51.656;16.106;2023-03-23T11:18:39;100859.71;;;19.95;42.66
77537;BME280;67783;51.656;16.106;2023-03-23T11:21:50;100859.89;;;20.01;42.79
77537;BME280;67783;51.656;16.106;2023-03-23T11:24:55;100860.58;;;20.11;42.70
77537;BME280;67783;51.656;16.106;2023-03-23T11:27:59;100860.58;;;20.19;42.83
77537;BME280;67783;51.656;16.106;2023-03-23T11:31:07;100861.59;;;20.26;42.90
77537;BME280;67783;51.656;16.106;2023-03-23T11:34:16;100865.71;;;20.31;42.75
77537;BME280;67783;51.656;16.106;2023-03-23T11:37:28;100876.22;;;20.25;42.94
77537;BME280;67783;51.656;16.106;2023-03-23T11:40:43;100874.20;;;20.19;43.49
77537;BME280;67783;51.656;16.106;2023-03-23T11:43:46;100884.07;;;20.20;43.24
77537;BME280;67783;51.656;16.106;2023-03-23T11:46:58;100875.04;;;20.20;43.53
77537;BME280;67783;51.656;16.106;2023-03-23T11:56:39;100872.42;;;19.70;44.54
77537;BME280;67783;51.656;16.106;2023-03-23T11:59:42;100862.02;;;19.57;44.86
77537;BME280;67783;51.656;16.106;2023-03-23T12:09:21;100864.50;;;19.43;44.84
77537;BME280;67783;51.656;16.106;2023-03-23T12:12:46;100856.29;;;19.34;45.23
77537;BME280;67783;51.656;16.106;2023-03-23T12:16:06;100863.07;;;19.30;44.93
77537;BME280;67783;51.656;16.106;2023-03-23T12:22:40;100868.80;;;19.19;45.54
77537;BME280;67783;51.656;16.106;2023-03-23T12:29:12;100867.43;;;19.15;45.45
77537;BME280;67783;51.656;16.106;2023-03-23T12:32:32;100865.20;;;19.11;45.66
77537;BME280;67783;51.656;16.106;2023-03-23T12:42:21;100861.96;;;19.07;46.04
77537;BME280;67783;51.656;16.106;2023-03-23T12:48:47;100850.09;;;19.08;46.65
77537;BME280;67783;51.656;16.106;2023-03-23T12:52:10;100851.77;;;19.09;46.62
77537;BME280;67783;51.656;16.106;2023-03-23T12:55:31;100852.80;;;19.08;46.23
77537;BME280;67783;51.656;16.106;2023-03-23T12:58:30;100854.66;;;19.08;46.42
77537;BME280;67783;51.656;16.106;2023-03-23T13:01:40;100848.90;;;19.11;46.65
77537;BME280;67783;51.656;16.106;2023-03-23T13:04:50;100839.89;;;19.10;46.33
77537;BME280;67783;51.656;16.106;2023-03-23T13:08:04;100849.26;;;19.16;46.10
77537;BME280;67783;51.656;16.106;2023-03-23T13:24:15;100839.48;;;19.39;45.71
77537;BME280;67783;51.656;16.106;2023-03-23T13:27:23;100827.15;;;19.45;45.51
77537;BME280;67783;51.656;16.106;2023-03-23T13:30:30;100834.62;;;19.51;45.39
77537;BME280;67783;51.656;16.106;2023-03-23T13:33:37;100834.30;;;19.54;45.15
77537;BME280;67783;51.656;16.106;2023-03-23T13:36:42;100825.11;;;19.55;44.66
77537;BME280;67783;51.656;16.106;2023-03-23T13:39:51;100819.35;;;19.50;44.45
77537;BME280;67783;51.656;16.106;2023-03-23T13:43:03;100810.48;;;19.48;44.00
77537;BME280;67783;51.656;16.106;2023-03-23T13:46:23;100812.70;;;19.44;44.14
77537;BME280;67783;51.656;16.106;2023-03-23T13:49:21;100819.30;;;19.42;44.14
77537;BME280;67783;51.656;16.106;2023-03-23T13:55:48;100825.46;;;19.52;44.35
77537;BME280;67783;51.656;16.106;2023-03-23T13:59:04;100812.55;;;19.54;44.00
77537;BME280;67783;51.656;16.106;2023-03-23T14:08:38;100808.73;;;19.38;43.77
77537;BME280;67783;51.656;16.106;2023-03-23T14:15:04;100839.67;;;19.38;42.74
77537;BME280;67783;51.656;16.106;2023-03-23T14:18:14;100829.63;;;19.38;43.67
77537;BME280;67783;51.656;16.106;2023-03-23T14:21:30;100821.46;;;19.38;43.47
77537;BME280;67783;51.656;16.106;2023-03-23T14:24:32;100820.95;;;19.34;43.47
77537;BME280;67783;51.656;16.106;2023-03-23T14:27:35;100819.43;;;19.32;44.03
77537;BME280;67783;51.656;16.106;2023-03-23T14:30:36;100807.69;;;19.31;44.30
77537;BME280;67783;51.656;16.106;2023-03-23T14:33:39;100827.42;;;19.33;44.35
77537;BME280;67783;51.656;16.106;2023-03-23T14:36:43;100816.86;;;19.30;44.51
77537;BME280;67783;51.656;16.106;2023-03-23T14:39:53;100805.81;;;19.24;44.76
77537;BME280;67783;51.656;16.106;2023-03-23T14:42:56;100801.05;;;19.26;44.78
77537;BME280;67783;51.656;16.106;2023-03-23T14:46:00;100805.65;;;19.25;45.12
77537;BME280;67783;51.656;16.106;2023-03-23T14:49:04;100809.20;;;19.26;45.08
77537;BME280;67783;51.656;16.106;2023-03-23T14:52:12;100807.67;;;19.23;45.42
77537;BME280;67783;51.656;16.106;2023-03-23T14:55:18;100795.79;;;19.24;45.89
77537;BME280;67783;51.656;16.106;2023-03-23T14:58:23;100779.14;;;19.27;45.66
77537;BME280;67783;51.656;16.106;2023-03-23T15:01:30;100771.33;;;19.24;45.67
77537;BME280;67783;51.656;16.106;2023-03-23T15:04:39;100765.68;;;19.18;46.01
77537;BME280;67783;51.656;16.106;2023-03-23T15:07:45;100779.45;;;19.16;45.72
77537;BME280;67783;51.656;16.106;2023-03-23T15:10:53;100792.53;;;19.13;45.99
77537;BME280;67783;51.656;16.106;2023-03-23T15:17:28;100796.41;;;19.10;46.31
77537;BME280;67783;51.656;16.106;2023-03-23T15:23:45;100807.48;;;19.17;46.92
77537;BME280;67783;51.656;16.106;2023-03-23T15:26:47;100804.77;;;19.17;46.73
77537;BME280;67783;51.656;16.106;2023-03-23T15:33:09;100786.02;;;19.06;47.05
77537;BME280;67783;51.656;16.106;2023-03-23T15:36:17;100800.10;;;19.01;46.58
77537;BME280;67783;51.656;16.106;2023-03-23T15:39:19;100796.50;;;18.93;46.20
77537;BME280;67783;51.656;16.106;2023-03-23T15:42:31;100808.55;;;18.90;45.64
77537;BME280;67783;51.656;16.106;2023-03-23T15:45:33;100811.12;;;18.92;46.05
77537;BME280;67783;51.656;16.106;2023-03-23T15:48:45;100812.27;;;18.89;45.95
77537;BME280;67783;51.656;16.106;2023-03-23T15:51:56;100805.65;;;18.83;45.62
77537;BME280;67783;51.656;16.106;2023-03-23T15:54:57;100810.70;;;18.78;45.88
77537;BME280;67783;51.656;16.106;2023-03-23T15:58:00;100817.63;;;18.73;45.99
77537;BME280;67783;51.656;16.106;2023-03-23T16:01:05;100811.67;;;18.69;45.96
77537;BME280;67783;51.656;16.106;2023-03-23T16:04:11;100814.72;;;18.66;45.97
77537;BME280;67783;51.656;16.106;2023-03-23T16:07:20;100814.34;;;18.61;45.89
77537;BME280;67783;51.656;16.106;2023-03-23T16:10:24;100820.48;;;18.63;46.10
77537;BME280;67783;51.656;16.106;2023-03-23T16:13:26;100815.52;;;18.59;46.27
77537;BME280;67783;51.656;16.106;2023-03-23T16:16:36;100820.95;;;18.59;46.36
77537;BME280;67783;51.656;16.106;2023-03-23T16:19:38;100823.15;;;18.55;46.58
77537;BME280;67783;51.656;16.106;2023-03-23T16:22:43;100832.74;;;18.50;47.01
77537;BME280;67783;51.656;16.106;2023-03-23T16:25:44;100838.49;;;18.47;46.79
77537;BME280;67783;51.656;16.106;2023-03-23T16:28:46;100837.93;;;18.43;47.10
77537;BME280;67783;51.656;16.106;2023-03-23T16:31:48;100855.08;;;18.43;47.04
77537;BME280;67783;51.656;16.106;2023-03-23T16:34:49;100848.26;;;18.39;47.23
77537;BME280;67783;51.656;16.106;2023-03-23T16:37:53;100847.59;;;18.37;47.41
77537;BME280;67783;51.656;16.106;2023-03-23T16:40:55;100847.20;;;18.32;47.78
77537;BME280;67783;51.656;16.106;2023-03-23T16:44:00;100851.09;;;18.30;48.40
77537;BME280;67783;51.656;16.106;2023-03-23T16:47:02;100852.24;;;18.27;47.75
77537;BME280;67783;51.656;16.106;2023-03-23T16:50:05;100854.42;;;18.24;48.29
77537;BME280;67783;51.656;16.106;2023-03-23T16:53:08;100856.99;;;18.25;47.92
77537;BME280;67783;51.656;16.106;2023-03-23T16:57:38;100852.71;;;18.23;48.14
77537;BME280;67783;51.656;16.106;2023-03-23T17:00:41;100854.74;;;18.21;48.66
77537;BME280;67783;51.656;16.106;2023-03-23T17:03:43;100846.75;;;18.19;48.32
77537;BME280;67783;51.656;16.106;2023-03-23T17:06:45;100847.07;;;18.16;48.75
77537;BME280;67783;51.656;16.106;2023-03-23T17:09:47;100854.50;;;18.14;48.71
77537;BME280;67783;51.656;16.106;2023-03-23T17:12:49;100858.53;;;18.10;48.89
77537;BME280;67783;51.656;16.106;2023-03-23T17:15:55;100867.13;;;18.06;49.81
77537;BME280;67783;51.656;16.106;2023-03-23T17:18:57;100866.60;;;18.02;49.30
77537;BME280;67783;51.656;16.106;2023-03-23T17:21:59;100868.38;;;17.93;49.60
77537;BME280;67783;51.656;16.106;2023-03-23T17:25:01;100879.23;;;17.93;49.32
77537;BME280;67783;51.656;16.106;2023-03-23T17:28:04;100888.55;;;17.91;49.72
77537;BME280;67783;51.656;16.106;2023-03-23T17:31:14;100860.55;;;17.73;50.64
77537;BME280;67783;51.656;16.106;2023-03-23T17:34:16;100891.71;;;17.86;49.94
77537;BME280;67783;51.656;16.106;2023-03-23T17:37:19;100874.77;;;17.84;50.36
77537;BME280;67783;51.656;16.106;2023-03-23T17:40:21;100866.45;;;17.86;49.91